Time;durP1;ratioP1;P1;durP2;ratioP2;P2;SDS_P1;SDS_P2;PMS_P1;PMS_P2;Temp;Humidity;BMP_temperature;BMP_pressure;BME280_temperature;BME280_humidity;BME280_pressure;Samples;Min_cycle;Max_cycle;Signal;HPM_P1;HPM_P2
2022/10/22 00:01:09;;;;;;;16.23;9.05;;;10.50;99.90;;;;;;5070084;28;20029;-58
2022/10/22 00:03:35;;;;;;;20.65;14.32;;;10.50;99.90;;;;;;5069593;28;20499;-59
2022/10/22 00:06:01;;;;;;;16.98;9.27;;;10.50;99.90;;;;;;5068518;28;20049;-59
2022/10/22 00:08:27;;;;;;;17.42;9.68;;;10.60;99.90;;;;;;5068686;28;20051;-59
2022/10/22 00:10:52;;;;;;;17.45;8.98;;;10.50;99.90;;;;;;5069292;28;20040;-60
2022/10/22 00:13:18;;;;;;;20.67;9.68;;;10.60;99.90;;;;;;5069483;28;20468;-58
2022/10/22 00:15:44;;;;;;;17.83;8.90;;;10.60;99.90;;;;;;5069765;28;20093;-59
2022/10/22 00:18:10;;;;;;;18.13;8.75;;;10.60;99.90;;;;;;5069511;28;20028;-59
2022/10/22 00:20:35;;;;;;;14.70;8.75;;;10.60;99.90;;;;;;5069761;28;20879;-60
2022/10/22 00:23:01;;;;;;;17.40;10.15;;;10.50;99.90;;;;;;5069677;28;20025;-60
2022/10/22 00:25:27;;;;;;;15.00;8.70;;;10.50;99.90;;;;;;5069554;28;20028;-60
2022/10/22 00:27:52;;;;;;;15.18;9.05;;;10.50;99.90;;;;;;5069611;28;20025;-59
2022/10/22 00:30:18;;;;;;;16.88;9.63;;;10.50;99.90;;;;;;5068904;28;20036;-58
2022/10/22 00:32:44;;;;;;;19.25;9.55;;;10.50;99.90;;;;;;5069286;28;20123;-58
2022/10/22 00:35:10;;;;;;;14.88;8.68;;;10.40;99.90;;;;;;5069675;28;20027;-58
2022/10/22 00:37:35;;;;;;;16.13;8.77;;;10.40;99.90;;;;;;5051688;28;20519;-57
2022/10/22 00:40:01;;;;;;;15.25;8.95;;;10.40;99.90;;;;;;5069583;28;20017;-59
2022/10/22 00:42:29;;;;;;;16.75;10.00;;;10.40;99.90;;;;;;5069443;28;20020;-61
2022/10/22 00:45:09;;;;;;;16.38;8.50;;;10.40;99.90;;;;;;5069549;28;20020;-59
2022/10/22 00:47:55;;;;;;;14.85;9.18;;;10.30;99.90;;;;;;5069419;28;20055;-59
2022/10/22 00:50:30;;;;;;;18.27;9.13;;;10.30;99.90;;;;;;5051197;28;20040;-56
2022/10/22 00:52:56;;;;;;;17.45;8.75;;;10.30;99.90;;;;;;5069204;28;20071;-60
2022/10/22 00:55:24;;;;;;;17.17;9.40;;;10.30;99.90;;;;;;5051216;28;20460;-59
2022/10/22 00:57:51;;;;;;;21.73;10.00;;;10.20;99.90;;;;;;5034695;28;20025;-57
2022/10/22 01:00:17;;;;;;;21.17;9.60;;;10.30;99.90;;;;;;5069320;28;20559;-61
2022/10/22 01:02:43;;;;;;;18.35;9.45;;;10.50;99.90;;;;;;5069198;28;20036;-60
2022/10/22 01:05:09;;;;;;;17.30;9.70;;;10.40;99.90;;;;;;5068965;28;20044;-60
2022/10/22 01:07:49;;;;;;;16.73;9.75;;;10.40;99.90;;;;;;5051040;28;20122;-60
2022/10/22 01:10:37;;;;;;;19.58;10.25;;;10.40;99.90;;;;;;5069172;28;20020;-59
2022/10/22 01:13:35;;;;;;;17.55;8.50;;;10.30;99.90;;;;;;5069047;28;20036;-61
2022/10/22 01:16:12;;;;;;;18.92;8.93;;;10.30;99.90;;;;;;5069067;28;20039;-59
2022/10/22 01:19:03;;;;;;;13.55;8.75;;;10.30;99.90;;;;;;5069444;28;20029;-58
2022/10/22 01:21:40;;;;;;;15.80;9.45;;;10.30;99.90;;;;;;5057631;28;20044;-60
2022/10/22 01:24:18;;;;;;;17.48;9.38;;;10.20;99.90;;;;;;5051011;28;20443;-59
2022/10/22 01:26:47;;;;;;;17.27;9.57;;;10.20;99.90;;;;;;5069186;28;20123;-62
2022/10/22 01:29:17;;;;;;;16.60;9.52;;;10.20;99.90;;;;;;5050894;28;20423;-57
2022/10/22 01:31:57;;;;;;;22.27;8.50;;;10.20;99.90;;;;;;5068647;28;20039;-59
2022/10/22 01:34:24;;;;;;;12.90;8.25;;;10.20;99.90;;;;;;5068928;28;20036;-58
2022/10/22 01:36:52;;;;;;;17.58;9.35;;;10.20;99.90;;;;;;5050830;28;20025;-60
2022/10/22 01:39:18;;;;;;;15.88;8.73;;;10.20;99.90;;;;;;5068974;28;20024;-60
2022/10/22 01:41:44;;;;;;;15.60;8.07;;;10.20;99.90;;;;;;5070951;28;20032;-58
2022/10/22 01:44:27;;;;;;;16.42;8.75;;;10.20;99.90;;;;;;5072299;28;20070;-55
2022/10/22 01:47:01;;;;;;;15.02;8.73;;;10.20;99.90;;;;;;5072291;28;20032;-58
2022/10/22 01:49:42;;;;;;;14.88;8.70;;;10.10;99.90;;;;;;5072620;28;20025;-61
2022/10/22 01:52:24;;;;;;;17.50;8.45;;;10.10;99.90;;;;;;5072427;28;20044;-60
2022/10/22 01:55:13;;;;;;;14.02;8.48;;;10.10;99.90;;;;;;5072413;28;20131;-60
2022/10/22 01:57:45;;;;;;;15.40;8.70;;;10.10;99.90;;;;;;5072327;28;20024;-57
2022/10/22 02:00:13;;;;;;;14.20;7.65;;;10.10;99.90;;;;;;5072534;28;20032;-57
2022/10/22 02:02:57;;;;;;;15.20;9.52;;;10.10;99.90;;;;;;5072278;28;20099;-61
2022/10/22 02:05:35;;;;;;;17.80;9.40;;;10.10;99.90;;;;;;5071870;28;20135;-58
2022/10/22 02:08:07;;;;;;;14.55;8.65;;;10.10;99.90;;;;;;5053935;28;20020;-59
2022/10/22 02:10:39;;;;;;;25.33;9.60;;;10.10;99.90;;;;;;5072069;28;20487;-59
2022/10/22 02:13:08;;;;;;;18.75;9.57;;;10.10;99.90;;;;;;5071891;28;20089;-60
2022/10/22 02:15:37;;;;;;;14.65;9.43;;;10.10;99.90;;;;;;5071955;28;20654;-60
2022/10/22 02:18:05;;;;;;;17.27;9.18;;;10.00;99.90;;;;;;5071770;28;20033;-58
2022/10/22 02:20:34;;;;;;;18.17;9.85;;;10.10;99.90;;;;;;5071640;28;20372;-60
2022/10/22 02:23:01;;;;;;;24.23;11.55;;;10.10;99.90;;;;;;5053832;28;20024;-58
2022/10/22 02:25:39;;;;;;;19.10;9.27;;;10.00;99.90;;;;;;5071850;28;20035;-59
2022/10/22 02:28:16;;;;;;;19.38;9.90;;;10.00;99.90;;;;;;5071962;28;20031;-58
2022/10/22 02:30:45;;;;;;;17.35;10.27;;;10.00;99.90;;;;;;5071699;28;20029;-60
2022/10/22 02:33:20;;;;;;;16.70;9.98;;;9.90;99.90;;;;;;5071263;28;20028;-59
2022/10/22 02:35:48;;;;;;;15.48;8.93;;;9.90;99.90;;;;;;5071707;28;20040;-59
2022/10/22 02:38:14;;;;;;;21.00;9.75;;;9.90;99.90;;;;;;5071502;28;20117;-60
2022/10/22 02:40:40;;;;;;;14.43;9.18;;;9.90;99.90;;;;;;5071775;28;20028;-60
2022/10/22 02:43:06;;;;;;;17.23;9.27;;;9.90;99.90;;;;;;5071511;28;20028;-59
2022/10/22 02:45:33;;;;;;;14.13;8.85;;;9.90;99.90;;;;;;5071139;28;20634;-61
2022/10/22 02:47:59;;;;;;;17.80;8.77;;;10.00;99.90;;;;;;5071487;28;20024;-60
2022/10/22 02:50:25;;;;;;;20.27;9.30;;;10.00;99.90;;;;;;5071251;28;20487;-60
2022/10/22 02:52:50;;;;;;;23.58;10.02;;;10.00;99.90;;;;;;5070489;28;20043;-59
2022/10/22 02:55:16;;;;;;;17.55;9.85;;;9.90;99.90;;;;;;5071348;28;20035;-58
2022/10/22 02:57:42;;;;;;;17.20;9.52;;;9.90;99.90;;;;;;5071347;28;20379;-59
2022/10/22 03:00:09;;;;;;;18.25;9.77;;;9.90;99.90;;;;;;5071313;28;20025;-58
2022/10/22 03:02:34;;;;;;;18.27;9.63;;;9.90;99.90;;;;;;5069261;28;20016;-59
2022/10/22 03:05:00;;;;;;;15.85;10.35;;;9.90;99.90;;;;;;5071630;28;20098;-59
2022/10/22 03:07:26;;;;;;;19.17;9.73;;;10.00;99.90;;;;;;5071330;28;20361;-60
2022/10/22 03:09:51;;;;;;;18.80;9.20;;;10.00;99.90;;;;;;5071358;28;20020;-61
2022/10/22 03:12:17;;;;;;;17.05;10.13;;;10.00;99.90;;;;;;5071269;28;20499;-57
2022/10/22 03:14:43;;;;;;;17.80;8.95;;;10.00;99.90;;;;;;5071452;28;20529;-55
2022/10/22 03:17:09;;;;;;;19.48;9.40;;;10.00;99.90;;;;;;5071424;28;20507;-57
2022/10/22 03:19:34;;;;;;;17.55;8.80;;;10.10;99.90;;;;;;5071162;28;20365;-56
2022/10/22 03:22:04;;;;;;;18.58;9.65;;;10.00;99.90;;;;;;5071045;28;20055;-57
2022/10/22 03:24:42;;;;;;;14.48;8.13;;;10.10;99.90;;;;;;5071215;28;20698;-57
2022/10/22 03:27:09;;;;;;;18.75;9.77;;;10.00;99.90;;;;;;5071110;28;20028;-60
2022/10/22 03:29:37;;;;;;;16.75;8.55;;;10.00;99.90;;;;;;5071155;28;20043;-58
2022/10/22 03:32:02;;;;;;;;;;;10.00;99.90;;;;;;5053629;28;20056;-58
2022/10/22 03:34:28;;;;;;;15.00;9.15;;;9.90;99.90;;;;;;5070764;28;19908;-56
2022/10/22 03:36:56;;;;;;;18.80;10.30;;;9.90;99.90;;;;;;5071168;28;20029;-59
2022/10/22 03:39:22;;;;;;;16.85;10.00;;;9.90;99.90;;;;;;5070911;28;20040;-57
2022/10/22 03:41:50;;;;;;;15.32;9.63;;;9.80;99.90;;;;;;5070789;28;20911;-61
2022/10/22 03:44:15;;;;;;;;;;;9.80;99.90;;;;;;5070072;28;20048;-58
2022/10/22 03:46:41;;;;;;;20.38;10.02;;;9.90;99.90;;;;;;5070743;28;20256;-58
2022/10/22 03:49:07;;;;;;;16.30;9.73;;;9.90;99.90;;;;;;5070968;28;20028;-58
2022/10/22 03:51:33;;;;;;;16.73;9.73;;;9.90;99.90;;;;;;5070318;28;20044;-59
2022/10/22 03:53:59;;;;;;;19.25;10.43;;;9.90;99.90;;;;;;5070729;28;20021;-60
2022/10/22 03:56:25;;;;;;;19.95;10.60;;;10.00;99.90;;;;;;5070539;28;20082;-60
2022/10/22 03:58:51;;;;;;;18.20;9.70;;;9.90;99.90;;;;;;5070654;28;20017;-57
2022/10/22 04:01:16;;;;;;;14.82;9.63;;;9.90;99.90;;;;;;5070466;28;20074;-58
2022/10/22 04:03:42;;;;;;;22.65;10.40;;;9.90;99.90;;;;;;5052589;28;20071;-57
2022/10/22 04:06:10;;;;;;;17.73;10.05;;;10.00;99.90;;;;;;5069475;28;20052;-56
2022/10/22 04:08:38;;;;;;;21.25;10.35;;;10.00;99.90;;;;;;5070496;28;20043;-58
2022/10/22 04:11:04;;;;;;;19.67;10.50;;;10.00;99.90;;;;;;5070087;28;20458;-58
2022/10/22 04:13:29;;;;;;;19.85;10.27;;;10.10;99.90;;;;;;5070495;28;20029;-57
2022/10/22 04:15:55;;;;;;;17.73;9.25;;;10.00;99.90;;;;;;5052158;28;20066;-57
2022/10/22 04:18:24;;;;;;;21.63;10.13;;;10.10;99.90;;;;;;5070007;28;20056;-56
2022/10/22 04:20:51;;;;;;;17.27;10.00;;;10.00;99.90;;;;;;5070098;28;20028;-60
2022/10/22 04:23:17;;;;;;;19.77;10.38;;;10.00;99.90;;;;;;5052120;28;20111;-58
2022/10/22 04:25:42;;;;;;;23.65;10.73;;;10.00;99.90;;;;;;5070418;28;20116;-58
2022/10/22 04:28:08;;;;;;;20.02;10.93;;;10.00;99.90;;;;;;5069802;28;20498;-59
2022/10/22 04:30:35;;;;;;;23.98;12.30;;;9.90;99.90;;;;;;5069789;28;20495;-57
2022/10/22 04:33:01;;;;;;;23.07;12.87;;;9.90;99.90;;;;;;5070158;28;20032;-60
2022/10/22 04:35:27;;;;;;;29.63;12.95;;;9.80;99.90;;;;;;5069874;28;20419;-60
2022/10/22 04:37:54;;;;;;;33.00;13.30;;;9.80;99.90;;;;;;5069756;28;20803;-61
2022/10/22 04:40:19;;;;;;;32.17;13.55;;;9.80;99.90;;;;;;5070219;28;20029;-57
2022/10/22 04:42:45;;;;;;;25.73;13.25;;;9.70;99.90;;;;;;5069972;28;20054;-57
2022/10/22 04:45:11;;;;;;;22.17;11.35;;;9.70;99.90;;;;;;5069772;28;20024;-59
2022/10/22 04:47:36;;;;;;;22.25;11.95;;;9.70;99.90;;;;;;5070173;28;20032;-62
2022/10/22 04:50:02;;;;;;;20.27;10.93;;;9.70;99.90;;;;;;5069759;28;20025;-62
2022/10/22 04:52:29;;;;;;;21.30;11.25;;;9.70;99.90;;;;;;5069570;28;20419;-61
2022/10/22 04:54:55;;;;;;;18.55;10.32;;;9.70;99.90;;;;;;5052142;28;20025;-59
2022/10/22 04:57:21;;;;;;;23.52;11.05;;;9.80;99.90;;;;;;5069963;28;20502;-58
2022/10/22 04:59:46;;;;;;;21.35;10.98;;;9.80;99.90;;;;;;5051699;28;20055;-58
2022/10/22 05:02:12;;;;;;;19.23;10.05;;;9.80;99.90;;;;;;5069606;28;20415;-58
2022/10/22 05:04:37;;;;;;;20.05;11.00;;;9.80;99.90;;;;;;5069855;28;20021;-60
2022/10/22 05:07:03;;;;;;;14.73;10.07;;;9.80;99.90;;;;;;5069285;28;20055;-61
2022/10/22 05:09:29;;;;;;;14.55;9.52;;;9.80;99.90;;;;;;5069343;28;20454;-60
2022/10/22 05:11:54;;;;;;;17.80;9.82;;;9.80;99.90;;;;;;5069662;28;20044;-60
2022/10/22 05:14:23;;;;;;;19.08;9.75;;;9.80;99.90;;;;;;5069520;28;20441;-60
2022/10/22 05:16:50;;;;;;;16.33;9.48;;;9.80;99.90;;;;;;5071489;28;20074;-61
2022/10/22 05:19:22;;;;;;;18.58;9.27;;;9.80;99.90;;;;;;5073424;28;20024;-62
2022/10/22 05:21:49;;;;;;;18.35;9.60;;;9.90;99.90;;;;;;5073308;28;20036;-57
2022/10/22 05:24:15;;;;;;;16.77;10.15;;;9.80;99.90;;;;;;5055683;28;20403;-60
2022/10/22 05:26:41;;;;;;;15.68;9.55;;;9.80;99.90;;;;;;5073201;28;20039;-60
2022/10/22 05:29:06;;;;;;;17.05;9.30;;;9.80;99.90;;;;;;5073755;28;20025;-60
2022/10/22 05:31:32;;;;;;;19.90;9.88;;;9.70;99.90;;;;;;5073058;28;20036;-60
2022/10/22 05:33:58;;;;;;;21.10;9.57;;;9.80;99.90;;;;;;5073442;28;20031;-60
2022/10/22 05:36:24;;;;;;;18.10;11.57;;;9.70;99.90;;;;;;5072784;28;20559;-59
2022/10/22 05:38:50;;;;;;;19.30;11.30;;;9.70;99.90;;;;;;5073158;28;20539;-60
2022/10/22 05:41:18;;;;;;;28.20;12.57;;;9.70;99.90;;;;;;5073200;28;20471;-60
2022/10/22 05:43:44;;;;;;;30.23;10.90;;;9.70;99.90;;;;;;5072803;28;20111;-60
2022/10/22 05:46:16;;;;;;;20.98;11.55;;;9.70;99.90;;;;;;5054861;28;20575;-60
2022/10/22 05:48:41;;;;;;;23.52;13.20;;;9.70;99.90;;;;;;5072628;28;20039;-60
2022/10/22 05:51:10;;;;;;;22.58;12.15;;;9.70;99.90;;;;;;5072901;28;20052;-58
2022/10/22 05:53:38;;;;;;;26.80;13.65;;;9.70;99.90;;;;;;5072714;28;20056;-58
2022/10/22 05:56:11;;;;;;;17.73;11.20;;;9.70;99.90;;;;;;5072482;28;20472;-60
2022/10/22 05:58:37;;;;;;;22.27;12.02;;;9.70;99.90;;;;;;5072707;28;20024;-60
2022/10/22 06:01:05;;;;;;;21.88;12.13;;;9.60;99.90;;;;;;5072600;28;20033;-58
2022/10/22 06:03:31;;;;;;;19.42;11.15;;;9.60;99.90;;;;;;5072386;28;20527;-61
2022/10/22 06:06:36;;;;;;;23.60;12.30;;;9.60;99.90;;;;;;5072329;28;20052;-60
2022/10/22 06:09:37;;;;;;;22.58;12.02;;;9.60;99.90;;;;;;5072141;28;20614;-60
2022/10/22 06:12:03;;;;;;;25.42;11.68;;;9.60;99.90;;;;;;5070422;28;20052;-60
2022/10/22 06:14:31;;;;;;;24.20;13.02;;;9.70;99.90;;;;;;5045472;28;20073;-60
2022/10/22 06:16:58;;;;;;;20.13;10.85;;;9.80;99.90;;;;;;5062124;28;20028;-61
2022/10/22 06:19:25;;;;;;;18.35;11.23;;;9.90;99.90;;;;;;5062244;28;20024;-60
2022/10/22 06:21:51;;;;;;;19.58;11.38;;;10.00;99.90;;;;;;5071514;28;20029;-57
2022/10/22 06:24:17;;;;;;;24.02;12.60;;;10.10;99.90;;;;;;5071649;28;20019;-59
2022/10/22 06:26:43;;;;;;;21.30;12.80;;;10.10;99.90;;;;;;5061992;28;20024;-58
2022/10/22 06:29:08;;;;;;;21.75;11.98;;;10.20;99.90;;;;;;5070588;28;20101;-59
2022/10/22 06:31:37;;;;;;;19.73;12.13;;;10.20;99.90;;;;;;5071406;28;20031;-60
2022/10/22 06:34:04;;;;;;;27.35;11.55;;;10.20;99.90;;;;;;5071533;28;20039;-60
2022/10/22 06:36:30;;;;;;;17.55;11.18;;;10.30;99.90;;;;;;5071635;28;20055;-59
2022/10/22 06:38:56;;;;;;;22.13;11.25;;;10.30;99.90;;;;;;5070988;28;20032;-58
2022/10/22 06:41:23;;;;;;;24.42;12.13;;;10.30;99.90;;;;;;5071416;28;20013;-59
2022/10/22 06:43:48;;;;;;;17.77;11.13;;;10.30;99.90;;;;;;5071263;28;20025;-60
2022/10/22 06:46:17;;;;;;;22.20;11.88;;;10.40;99.90;;;;;;5056973;28;20271;-59
2022/10/22 06:48:46;;;;;;;18.88;11.43;;;10.30;99.90;;;;;;5071265;28;20020;-61
2022/10/22 06:51:12;;;;;;;22.02;12.82;;;10.40;99.90;;;;;;5068417;28;20028;-62
2022/10/22 06:53:39;;;;;;;17.85;11.30;;;10.50;99.90;;;;;;5071492;28;20024;-59
2022/10/22 06:56:14;;;;;;;19.30;11.77;;;10.50;99.90;;;;;;5071300;28;20082;-59
2022/10/22 06:58:40;;;;;;;17.27;10.75;;;10.50;99.90;;;;;;5055570;28;20041;-58
2022/10/22 07:01:12;;;;;;;20.92;12.82;;;10.60;99.90;;;;;;5070947;28;20027;-59
2022/10/22 07:03:39;;;;;;;19.70;11.40;;;10.60;99.90;;;;;;5070803;28;20086;-60
2022/10/22 07:06:07;;;;;;;24.25;13.15;;;10.60;99.90;;;;;;5067221;28;20090;-58
2022/10/22 07:08:33;;;;;;;19.90;11.45;;;10.70;99.90;;;;;;5071025;28;20036;-61
2022/10/22 07:11:08;;;;;;;21.00;10.32;;;10.80;99.90;;;;;;5070735;28;20112;-60
2022/10/22 07:13:34;;;;;;;21.08;9.93;;;10.90;99.90;;;;;;5070871;28;20028;-58
2022/10/22 07:15:59;;;;;;;18.95;10.25;;;10.90;99.90;;;;;;5052710;28;20033;-58
2022/10/22 07:18:25;;;;;;;19.75;11.00;;;11.00;99.90;;;;;;5071059;28;20086;-59
2022/10/22 07:20:51;;;;;;;24.27;12.88;;;11.00;99.90;;;;;;5052868;28;20044;-60
2022/10/22 07:23:16;;;;;;;22.90;13.55;;;11.00;99.90;;;;;;5071071;28;20070;-59
2022/10/22 07:25:42;;;;;;;22.83;11.93;;;11.10;99.90;;;;;;5071050;28;20081;-59
2022/10/22 07:28:08;;;;;;;22.02;11.73;;;11.10;99.90;;;;;;5070323;28;20032;-59
2022/10/22 07:30:35;;;;;;;22.80;11.73;;;11.10;99.90;;;;;;5070075;28;20030;-58
2022/10/22 07:33:01;;;;;;;18.88;10.98;;;11.10;99.90;;;;;;5069268;28;20024;-60
2022/10/22 07:35:27;;;;;;;19.50;10.98;;;11.20;99.90;;;;;;5069326;28;20545;-60
2022/10/22 07:37:52;;;;;;;19.80;11.20;;;11.20;99.90;;;;;;5069548;28;20099;-59
2022/10/22 07:40:18;;;;;;;21.27;12.25;;;11.20;99.90;;;;;;5059466;28;20112;-59
2022/10/22 07:42:44;;;;;;;28.05;12.32;;;11.30;99.90;;;;;;5066790;28;20024;-58
2022/10/22 07:45:09;;;;;;;19.35;10.85;;;11.30;99.90;;;;;;5070622;28;20463;-59
2022/10/22 07:47:35;;;;;;;22.95;11.60;;;11.40;99.90;;;;;;5070331;28;20494;-60
2022/10/22 07:50:01;;;;;;;20.55;12.10;;;11.40;99.90;;;;;;5070833;28;20036;-61
2022/10/22 07:52:27;;;;;;;24.58;12.48;;;11.50;99.90;;;;;;5070341;28;20391;-61
2022/10/22 07:54:52;;;;;;;19.67;11.30;;;11.50;99.90;;;;;;5069129;28;20028;-62
2022/10/22 07:57:18;;;;;;;21.65;12.05;;;11.60;99.90;;;;;;5070301;28;20028;-60
2022/10/22 07:59:44;;;;;;;30.92;13.55;;;11.60;99.90;;;;;;5069920;28;20025;-60
2022/10/22 08:02:11;;;;;;;24.20;10.88;;;11.70;99.90;;;;;;5069232;28;20045;-61
2022/10/22 08:04:37;;;;;;;22.98;11.15;;;11.70;99.90;;;;;;5069892;28;20372;-59
2022/10/22 08:07:02;;;;;;;20.98;10.88;;;11.80;99.90;;;;;;5070091;28;20499;-57
2022/10/22 08:09:28;;;;;;;19.67;11.13;;;11.70;99.90;;;;;;5068981;28;20055;-59
2022/10/22 08:11:53;;;;;;;21.30;11.77;;;11.80;99.90;;;;;;5069193;28;20041;-62
2022/10/22 08:14:19;;;;;;;21.80;12.20;;;11.80;99.90;;;;;;5068871;28;20049;-61
2022/10/22 08:16:45;;;;;;;20.92;11.50;;;11.80;99.90;;;;;;5068868;28;20142;-60
2022/10/22 08:19:12;;;;;;;21.85;13.98;;;11.80;99.90;;;;;;5066638;28;20333;-60
2022/10/22 08:21:38;;;;;;;24.65;12.52;;;11.90;99.90;;;;;;5068353;28;20052;-61
2022/10/22 08:24:04;;;;;;;22.88;13.60;;;11.80;99.90;;;;;;5055040;28;20047;-61
2022/10/22 08:26:30;;;;;;;19.33;10.82;;;11.90;99.90;;;;;;5051048;28;20032;-60
2022/10/22 08:28:56;;;;;;;22.25;11.20;;;11.80;99.90;;;;;;5068347;28;20035;-59
2022/10/22 08:31:21;;;;;;;24.27;11.70;;;11.90;99.90;;;;;;5068458;28;20107;-59
2022/10/22 08:33:48;;;;;;;21.33;11.95;;;11.90;99.90;;;;;;5067850;28;20472;-61
2022/10/22 08:36:13;;;;;;;17.15;10.40;;;11.90;99.90;;;;;;5068306;28;20021;-60
2022/10/22 08:38:39;;;;;;;20.25;12.15;;;12.00;99.90;;;;;;5069037;28;20073;-61
2022/10/22 08:41:14;;;;;;;26.20;12.30;;;12.00;99.90;;;;;;5069967;28;20177;-63
2022/10/22 08:44:14;;;;;;;559.75;328.58;;;12.00;99.90;;;;;;5051845;28;20119;-62
2022/10/22 08:46:51;;;;;;;41.42;21.45;;;12.10;99.90;;;;;;5070087;28;20025;-62
2022/10/22 08:49:27;;;;;;;25.27;14.27;;;12.10;99.90;;;;;;5069948;28;20032;-58
2022/10/22 08:51:56;;;;;;;24.25;14.02;;;12.10;99.90;;;;;;5072157;28;20040;-60
2022/10/22 08:54:26;;;;;;;29.48;15.07;;;12.10;99.90;;;;;;5073996;28;20028;-59
2022/10/22 08:57:17;;;;;;;22.67;13.75;;;12.10;99.90;;;;;;5074188;28;20020;-61
2022/10/22 08:59:49;;;;;;;28.92;13.80;;;12.10;99.90;;;;;;5074256;28;20055;-62
2022/10/22 09:02:43;;;;;;;21.33;13.40;;;12.10;99.90;;;;;;5073000;28;20028;-60
2022/10/22 09:05:55;;;;;;;29.00;14.73;;;12.20;99.90;;;;;;5071038;28;20492;-59
2022/10/22 09:08:21;;;;;;;25.55;13.32;;;12.10;99.90;;;;;;5062054;28;20056;-59
2022/10/22 09:11:10;;;;;;;20.42;13.23;;;12.20;99.90;;;;;;5071390;28;20036;-61
2022/10/22 09:13:36;;;;;;;23.15;14.25;;;12.20;99.90;;;;;;5072604;28;20052;-58
2022/10/22 09:16:13;;;;;;;24.77;14.15;;;12.20;99.90;;;;;;5072775;28;20082;-59
2022/10/22 09:19:04;;;;;;;24.35;14.25;;;12.20;99.90;;;;;;5072781;28;20120;-57
2022/10/22 09:21:45;;;;;;;28.20;12.73;;;12.30;99.90;;;;;;5071887;28;20024;-61
2022/10/22 09:24:27;;;;;;;27.70;13.60;;;12.40;99.90;;;;;;5072563;28;20029;-59
2022/10/22 09:26:52;;;;;;;22.73;13.50;;;12.40;99.90;;;;;;5071156;28;20060;-58
2022/10/22 09:29:23;;;;;;;24.15;14.77;;;12.40;99.90;;;;;;5071640;28;20125;-59
2022/10/22 09:31:49;;;;;;;26.63;14.55;;;12.40;99.90;;;;;;5071590;28;20029;-59
2022/10/22 09:34:19;;;;;;;28.77;14.02;;;12.40;99.90;;;;;;5072312;28;20054;-58
2022/10/22 09:36:45;;;;;;;22.63;13.07;;;12.40;99.90;;;;;;5073061;28;20027;-61
2022/10/22 09:39:31;;;;;;;25.13;13.73;;;12.50;99.90;;;;;;5073226;28;20379;-60
2022/10/22 09:41:57;;;;;;;23.50;12.68;;;12.40;99.90;;;;;;5073256;28;20468;-62
2022/10/22 09:44:22;;;;;;;23.98;13.23;;;12.50;99.90;;;;;;5071997;28;20032;-61
2022/10/22 09:46:48;;;;;;;29.85;14.25;;;12.50;99.90;;;;;;5072111;28;20063;-58
2022/10/22 09:49:20;;;;;;;24.92;13.95;;;12.50;99.90;;;;;;5072067;28;20031;-58
2022/10/22 09:51:58;;;;;;;24.67;13.38;;;12.50;99.90;;;;;;5071431;28;20043;-61
2022/10/22 09:54:44;;;;;;;26.58;14.27;;;12.50;99.90;;;;;;5071032;28;20086;-57
2022/10/22 09:57:21;;;;;;;24.45;12.98;;;12.60;99.90;;;;;;5070102;28;20145;-57
2022/10/22 09:59:49;;;;;;;24.52;14.80;;;12.60;99.90;;;;;;5070659;28;20021;-59
2022/10/22 10:02:19;;;;;;;24.70;14.63;;;12.60;99.90;;;;;;5070712;28;20165;-58
2022/10/22 10:05:03;;;;;;;25.15;12.90;;;12.60;99.90;;;;;;5070666;28;20020;-57
2022/10/22 10:07:31;;;;;;;27.33;13.90;;;12.70;99.90;;;;;;5030627;28;20497;-58
2022/10/22 10:09:57;;;;;;;29.73;14.35;;;12.70;99.90;;;;;;5027847;28;20036;-59
2022/10/22 10:12:44;;;;;;;33.75;14.52;;;12.70;99.90;;;;;;5029566;28;20025;-59
2022/10/22 10:15:10;;;;;;;26.95;14.88;;;12.70;99.90;;;;;;5028773;28;20075;-59
2022/10/22 10:17:57;;;;;;;30.05;15.15;;;12.70;99.90;;;;;;5029736;28;20022;-59
2022/10/22 10:20:32;;;;;;;35.13;15.75;;;12.80;99.90;;;;;;5030909;28;20028;-59
2022/10/22 10:23:18;;;;;;;26.88;15.18;;;12.80;99.90;;;;;;5032364;28;20117;-59
2022/10/22 10:26:01;;;;;;;23.73;13.52;;;12.80;99.90;;;;;;5018371;28;20036;-58
2022/10/22 10:29:08;;;;;;;24.77;14.43;;;12.80;99.90;;;;;;5032251;28;20048;-57
2022/10/22 10:31:53;;;;;;;27.58;15.10;;;12.80;99.90;;;;;;4991676;28;20067;-59
2022/10/22 10:34:34;;;;;;;23.20;13.73;;;12.80;99.90;;;;;;5031140;28;20075;-60
2022/10/22 10:37:02;;;;;;;25.67;13.35;;;12.80;99.90;;;;;;5032098;28;20017;-61
2022/10/22 10:39:45;;;;;;;25.58;14.57;;;12.80;99.90;;;;;;5031930;28;20030;-59
2022/10/22 10:42:35;;;;;;;29.52;14.65;;;12.80;99.90;;;;;;5031721;28;20021;-59
2022/10/22 10:45:19;;;;;;;28.15;15.48;;;12.80;99.90;;;;;;5028558;28;20028;-58
2022/10/22 10:48:08;;;;;;;36.22;17.20;;;12.80;99.90;;;;;;5031501;28;20482;-60
2022/10/22 10:50:56;;;;;;;27.90;14.35;;;12.80;99.90;;;;;;5030325;28;20432;-60
2022/10/22 10:53:36;;;;;;;26.88;14.13;;;12.80;99.90;;;;;;5031741;28;20047;-57
2022/10/22 10:56:20;;;;;;;27.13;16.05;;;12.80;99.90;;;;;;5031739;28;20018;-57
2022/10/22 10:59:12;;;;;;;31.13;15.88;;;12.80;99.90;;;;;;5031536;28;20112;-58
2022/10/22 11:01:50;;;;;;;32.42;15.38;;;12.80;99.90;;;;;;5031545;28;20025;-59
2022/10/22 11:04:53;;;;;;;27.15;15.52;;;12.90;99.90;;;;;;5031649;28;20501;-58
2022/10/22 11:07:25;;;;;;;22.60;13.52;;;12.80;99.90;;;;;;5031738;28;20046;-58
2022/10/22 11:10:18;;;;;;;23.25;12.88;;;12.80;99.90;;;;;;5031422;28;20025;-59
2022/10/22 11:12:50;;;;;;;27.67;15.25;;;12.70;99.90;;;;;;5030191;28;20052;-59
2022/10/22 11:15:34;;;;;;;38.53;20.38;;;12.70;99.90;;;;;;5030780;28;20033;-59
2022/10/22 11:18:13;;;;;;;28.80;14.98;;;12.60;99.90;;;;;;5031095;28;20032;-58
2022/10/22 11:20:49;;;;;;;25.42;14.40;;;12.60;99.90;;;;;;5031288;28;20025;-57
2022/10/22 11:23:35;;;;;;;27.95;15.23;;;12.60;99.90;;;;;;5031204;28;20139;-59
2022/10/22 11:26:03;;;;;;;23.38;14.93;;;12.50;99.90;;;;;;5031223;28;20027;-60
2022/10/22 11:28:40;;;;;;;34.25;17.23;;;12.50;99.90;;;;;;5029751;28;20025;-59
2022/10/22 11:31:13;;;;;;;30.33;16.60;;;12.50;99.90;;;;;;5031007;28;20112;-58
2022/10/22 11:33:44;;;;;;;29.50;16.83;;;12.40;99.90;;;;;;5030985;28;20060;-58
2022/10/22 11:36:11;;;;;;;32.10;18.05;;;12.40;99.90;;;;;;5029625;28;20022;-60
2022/10/22 11:38:37;;;;;;;23.67;15.30;;;12.40;99.90;;;;;;5029538;28;20029;-59
2022/10/22 11:41:12;;;;;;;31.13;16.83;;;12.30;99.90;;;;;;5030861;28;20785;-58
2022/10/22 11:44:08;;;;;;;31.33;17.20;;;12.30;99.90;;;;;;5030859;28;20331;-58
2022/10/22 11:46:58;;;;;;;29.00;16.90;;;12.30;99.90;;;;;;5026540;28;20041;-58
2022/10/22 11:49:54;;;;;;;30.63;16.13;;;12.20;99.90;;;;;;5030727;28;20396;-59
2022/10/22 11:52:31;;;;;;;29.15;16.63;;;12.20;99.90;;;;;;5029347;28;20037;-59
2022/10/22 11:55:00;;;;;;;28.10;17.13;;;12.20;99.90;;;;;;5029193;28;20469;-59
2022/10/22 11:57:36;;;;;;;26.75;16.73;;;12.20;99.90;;;;;;5030405;28;20036;-59
2022/10/22 12:00:26;;;;;;;25.70;15.20;;;12.30;99.90;;;;;;5030752;28;20112;-59
2022/10/22 12:03:03;;;;;;;27.77;16.13;;;12.20;99.90;;;;;;5030250;28;20049;-58
2022/10/22 12:05:34;;;;;;;22.50;14.73;;;12.20;99.90;;;;;;5042348;28;20051;-59
2022/10/22 12:08:15;;;;;;;26.88;14.43;;;12.10;99.90;;;;;;5070418;28;20024;-60
2022/10/22 12:11:12;;;;;;;32.28;16.30;;;12.00;99.90;;;;;;5070389;28;20032;-59
2022/10/22 12:14:02;;;;;;;25.50;15.57;;;11.90;99.90;;;;;;5069920;28;20491;-60
2022/10/22 12:16:31;;;;;;;28.30;16.48;;;11.90;99.90;;;;;;5052022;28;20147;-59
2022/10/22 12:19:10;;;;;;;28.42;17.17;;;11.90;99.90;;;;;;5069723;28;20056;-59
2022/10/22 12:21:38;;;;;;;25.95;16.08;;;11.80;99.90;;;;;;5052079;28;20380;-58
2022/10/22 12:24:05;;;;;;;26.25;16.40;;;11.80;99.90;;;;;;5057307;28;20029;-61
2022/10/22 12:26:34;;;;;;;;;;;11.80;99.90;;;;;;5065573;28;20077;-59
2022/10/22 12:29:01;;;;;;;;;;;11.80;99.90;;;;;;5070006;28;19912;-58
2022/10/22 12:31:34;;;;;;;29.88;16.45;;;11.80;99.90;;;;;;5068824;28;19923;-58
2022/10/22 12:34:00;;;;;;;31.58;19.05;;;11.80;99.90;;;;;;5069521;28;20562;-60
2022/10/22 12:36:27;;;;;;;28.42;17.73;;;11.80;99.90;;;;;;5064918;28;20109;-60
2022/10/22 12:38:53;;;;;;;;;;;11.80;99.90;;;;;;5050229;28;20496;-58
2022/10/22 12:41:20;;;;;;;26.75;16.67;;;11.70;99.90;;;;;;5056722;28;19915;-58
2022/10/22 12:43:46;;;;;;;25.55;16.45;;;11.80;99.90;;;;;;5069389;28;20020;-57
2022/10/22 12:46:15;;;;;;;30.77;17.88;;;11.70;99.90;;;;;;5051633;28;20043;-59
2022/10/22 12:48:44;;;;;;;27.13;17.10;;;11.70;99.90;;;;;;5069747;28;20020;-60
2022/10/22 12:51:19;;;;;;;32.92;18.33;;;11.70;99.90;;;;;;5069735;28;20380;-57
2022/10/22 12:53:51;;;;;;;37.67;19.55;;;11.70;99.90;;;;;;5069579;28;20056;-58